sensor_id;sensor_type;location;lat;lon;timestamp;P1;durP1;ratioP1;P2;durP2;ratioP2
49540;SDS011;35432;43.566;1.398;2023-03-13T00:01:47;9.93;;;5.40;;
49540;SDS011;35432;43.566;1.398;2023-03-13T00:04:13;11.27;;;5.60;;
49540;SDS011;35432;43.566;1.398;2023-03-13T00:06:39;14.73;;;6.93;;
49540;SDS011;35432;43.566;1.398;2023-03-13T00:09:08;14.63;;;6.68;;
49540;SDS011;35432;43.566;1.398;2023-03-13T00:11:35;13.03;;;5.97;;
49540;SDS011;35432;43.566;1.398;2023-03-13T00:14:01;14.47;;;7.40;;
49540;SDS011;35432;43.566;1.398;2023-03-13T00:16:28;14.57;;;7.67;;
49540;SDS011;35432;43.566;1.398;2023-03-13T00:18:55;13.65;;;7.38;;
49540;SDS011;35432;43.566;1.398;2023-03-13T00:21:22;13.13;;;6.85;;
49540;SDS011;35432;43.566;1.398;2023-03-13T00:23:49;13.23;;;6.85;;
49540;SDS011;35432;43.566;1.398;2023-03-13T00:26:19;12.40;;;6.73;;
49540;SDS011;35432;43.566;1.398;2023-03-13T00:28:46;11.63;;;7.10;;
49540;SDS011;35432;43.566;1.398;2023-03-13T00:33:39;13.70;;;5.97;;
49540;SDS011;35432;43.566;1.398;2023-03-13T00:36:12;14.60;;;6.15;;
49540;SDS011;35432;43.566;1.398;2023-03-13T00:38:39;11.20;;;6.72;;
49540;SDS011;35432;43.566;1.398;2023-03-13T00:41:06;16.17;;;7.53;;
49540;SDS011;35432;43.566;1.398;2023-03-13T00:43:33;13.50;;;7.70;;
49540;SDS011;35432;43.566;1.398;2023-03-13T00:45:59;15.63;;;8.23;;
49540;SDS011;35432;43.566;1.398;2023-03-13T00:48:25;16.75;;;8.70;;
49540;SDS011;35432;43.566;1.398;2023-03-13T00:50:51;26.50;;;11.93;;
49540;SDS011;35432;43.566;1.398;2023-03-13T00:53:17;35.38;;;14.13;;
49540;SDS011;35432;43.566;1.398;2023-03-13T00:58:20;31.80;;;13.13;;
49540;SDS011;35432;43.566;1.398;2023-03-13T01:00:46;34.75;;;13.20;;
49540;SDS011;35432;43.566;1.398;2023-03-13T01:03:11;35.03;;;14.13;;
49540;SDS011;35432;43.566;1.398;2023-03-13T01:05:37;32.03;;;12.90;;
49540;SDS011;35432;43.566;1.398;2023-03-13T01:08:02;30.17;;;12.50;;
49540;SDS011;35432;43.566;1.398;2023-03-13T01:10:28;29.73;;;12.65;;
49540;SDS011;35432;43.566;1.398;2023-03-13T01:12:53;29.20;;;11.80;;
49540;SDS011;35432;43.566;1.398;2023-03-13T01:15:19;30.37;;;12.37;;
49540;SDS011;35432;43.566;1.398;2023-03-13T01:17:44;26.00;;;11.30;;
49540;SDS011;35432;43.566;1.398;2023-03-13T01:20:10;19.77;;;9.30;;
49540;SDS011;35432;43.566;1.398;2023-03-13T01:22:36;25.10;;;10.32;;
49540;SDS011;35432;43.566;1.398;2023-03-13T01:25:01;20.87;;;9.50;;
49540;SDS011;35432;43.566;1.398;2023-03-13T01:27:28;18.25;;;9.00;;
49540;SDS011;35432;43.566;1.398;2023-03-13T01:29:54;16.80;;;8.73;;
49540;SDS011;35432;43.566;1.398;2023-03-13T01:32:19;16.73;;;8.57;;
49540;SDS011;35432;43.566;1.398;2023-03-13T01:34:44;17.57;;;8.97;;
49540;SDS011;35432;43.566;1.398;2023-03-13T01:37:10;18.47;;;9.63;;
49540;SDS011;35432;43.566;1.398;2023-03-13T01:39:35;19.97;;;9.00;;
49540;SDS011;35432;43.566;1.398;2023-03-13T01:42:02;15.73;;;8.27;;
49540;SDS011;35432;43.566;1.398;2023-03-13T01:44:28;18.30;;;8.95;;
49540;SDS011;35432;43.566;1.398;2023-03-13T01:46:53;20.93;;;9.47;;
49540;SDS011;35432;43.566;1.398;2023-03-13T01:49:23;18.53;;;8.90;;
49540;SDS011;35432;43.566;1.398;2023-03-13T01:51:53;22.52;;;10.18;;
49540;SDS011;35432;43.566;1.398;2023-03-13T01:54:34;19.00;;;9.93;;
49540;SDS011;35432;43.566;1.398;2023-03-13T01:59:45;19.13;;;10.02;;
49540;SDS011;35432;43.566;1.398;2023-03-13T02:02:15;22.80;;;10.30;;
49540;SDS011;35432;43.566;1.398;2023-03-13T02:04:43;20.55;;;9.90;;
49540;SDS011;35432;43.566;1.398;2023-03-13T02:07:12;20.73;;;9.33;;
49540;SDS011;35432;43.566;1.398;2023-03-13T02:09:41;17.17;;;9.57;;
49540;SDS011;35432;43.566;1.398;2023-03-13T02:12:13;17.85;;;9.25;;
49540;SDS011;35432;43.566;1.398;2023-03-13T02:14:42;16.45;;;8.50;;
49540;SDS011;35432;43.566;1.398;2023-03-13T02:17:10;17.58;;;8.63;;
49540;SDS011;35432;43.566;1.398;2023-03-13T02:19:42;15.27;;;8.30;;
49540;SDS011;35432;43.566;1.398;2023-03-13T02:27:35;14.85;;;8.32;;
49540;SDS011;35432;43.566;1.398;2023-03-13T02:30:00;14.20;;;8.00;;
49540;SDS011;35432;43.566;1.398;2023-03-13T02:32:28;14.07;;;7.57;;
49540;SDS011;35432;43.566;1.398;2023-03-13T02:34:55;12.23;;;7.10;;
49540;SDS011;35432;43.566;1.398;2023-03-13T02:37:26;13.13;;;7.43;;
49540;SDS011;35432;43.566;1.398;2023-03-13T02:39:54;15.37;;;7.77;;
49540;SDS011;35432;43.566;1.398;2023-03-13T02:42:24;15.40;;;8.00;;
49540;SDS011;35432;43.566;1.398;2023-03-13T02:44:49;18.07;;;8.63;;
49540;SDS011;35432;43.566;1.398;2023-03-13T02:47:17;16.20;;;8.95;;
49540;SDS011;35432;43.566;1.398;2023-03-13T02:49:43;17.17;;;9.25;;
49540;SDS011;35432;43.566;1.398;2023-03-13T02:52:13;16.40;;;8.43;;
49540;SDS011;35432;43.566;1.398;2023-03-13T02:54:42;15.48;;;7.85;;
49540;SDS011;35432;43.566;1.398;2023-03-13T02:57:11;13.45;;;7.00;;
49540;SDS011;35432;43.566;1.398;2023-03-13T02:59:37;12.57;;;7.13;;
49540;SDS011;35432;43.566;1.398;2023-03-13T03:02:02;14.77;;;7.35;;
49540;SDS011;35432;43.566;1.398;2023-03-13T03:04:29;12.43;;;6.80;;
49540;SDS011;35432;43.566;1.398;2023-03-13T03:06:54;13.95;;;7.28;;
49540;SDS011;35432;43.566;1.398;2023-03-13T03:09:21;12.10;;;6.23;;
49540;SDS011;35432;43.566;1.398;2023-03-13T03:11:46;15.02;;;6.90;;
49540;SDS011;35432;43.566;1.398;2023-03-13T03:14:12;13.45;;;7.13;;
49540;SDS011;35432;43.566;1.398;2023-03-13T03:16:38;16.17;;;7.80;;
49540;SDS011;35432;43.566;1.398;2023-03-13T03:19:04;17.23;;;8.95;;
49540;SDS011;35432;43.566;1.398;2023-03-13T03:21:30;19.03;;;8.90;;
49540;SDS011;35432;43.566;1.398;2023-03-13T03:23:56;17.65;;;9.30;;
49540;SDS011;35432;43.566;1.398;2023-03-13T03:26:22;15.93;;;8.43;;
49540;SDS011;35432;43.566;1.398;2023-03-13T03:28:47;15.07;;;7.83;;
49540;SDS011;35432;43.566;1.398;2023-03-13T03:31:13;14.90;;;7.37;;
49540;SDS011;35432;43.566;1.398;2023-03-13T03:33:39;16.52;;;8.35;;
49540;SDS011;35432;43.566;1.398;2023-03-13T03:36:07;12.85;;;7.25;;
49540;SDS011;35432;43.566;1.398;2023-03-13T03:38:35;13.33;;;7.63;;
49540;SDS011;35432;43.566;1.398;2023-03-13T03:41:01;13.93;;;7.32;;
49540;SDS011;35432;43.566;1.398;2023-03-13T03:43:27;17.52;;;7.78;;
49540;SDS011;35432;43.566;1.398;2023-03-13T03:45:52;16.30;;;8.03;;
49540;SDS011;35432;43.566;1.398;2023-03-13T03:48:18;19.13;;;7.67;;
49540;SDS011;35432;43.566;1.398;2023-03-13T03:50:43;14.77;;;7.40;;
49540;SDS011;35432;43.566;1.398;2023-03-13T03:53:08;14.87;;;7.60;;
49540;SDS011;35432;43.566;1.398;2023-03-13T03:55:34;15.65;;;7.47;;
49540;SDS011;35432;43.566;1.398;2023-03-13T03:58:00;15.60;;;8.17;;
49540;SDS011;35432;43.566;1.398;2023-03-13T04:00:25;15.40;;;7.72;;
49540;SDS011;35432;43.566;1.398;2023-03-13T04:02:52;13.77;;;6.70;;
49540;SDS011;35432;43.566;1.398;2023-03-13T04:05:18;13.48;;;6.60;;
49540;SDS011;35432;43.566;1.398;2023-03-13T04:07:44;15.00;;;7.15;;
49540;SDS011;35432;43.566;1.398;2023-03-13T04:10:09;13.20;;;6.80;;
49540;SDS011;35432;43.566;1.398;2023-03-13T04:12:35;13.63;;;7.25;;
49540;SDS011;35432;43.566;1.398;2023-03-13T04:15:01;12.93;;;6.47;;
49540;SDS011;35432;43.566;1.398;2023-03-13T04:17:26;18.02;;;7.53;;
49540;SDS011;35432;43.566;1.398;2023-03-13T04:19:52;15.07;;;7.90;;
49540;SDS011;35432;43.566;1.398;2023-03-13T04:22:17;13.20;;;6.63;;
49540;SDS011;35432;43.566;1.398;2023-03-13T04:24:43;12.80;;;7.10;;
49540;SDS011;35432;43.566;1.398;2023-03-13T04:27:08;13.90;;;7.00;;
49540;SDS011;35432;43.566;1.398;2023-03-13T04:29:33;13.87;;;6.73;;
49540;SDS011;35432;43.566;1.398;2023-03-13T04:31:59;14.27;;;8.03;;
49540;SDS011;35432;43.566;1.398;2023-03-13T04:34:25;21.50;;;9.13;;
49540;SDS011;35432;43.566;1.398;2023-03-13T04:36:50;16.77;;;8.63;;
49540;SDS011;35432;43.566;1.398;2023-03-13T04:39:15;16.00;;;7.67;;
49540;SDS011;35432;43.566;1.398;2023-03-13T04:41:41;14.40;;;7.70;;
49540;SDS011;35432;43.566;1.398;2023-03-13T04:44:06;14.00;;;7.13;;
49540;SDS011;35432;43.566;1.398;2023-03-13T04:46:32;11.37;;;6.30;;
49540;SDS011;35432;43.566;1.398;2023-03-13T04:48:57;12.53;;;5.47;;
49540;SDS011;35432;43.566;1.398;2023-03-13T04:51:23;11.43;;;6.10;;
49540;SDS011;35432;43.566;1.398;2023-03-13T04:53:48;12.90;;;6.70;;
49540;SDS011;35432;43.566;1.398;2023-03-13T04:56:16;16.93;;;6.37;;
49540;SDS011;35432;43.566;1.398;2023-03-13T04:58:46;12.32;;;5.70;;
49540;SDS011;35432;43.566;1.398;2023-03-13T05:01:12;10.27;;;5.63;;
49540;SDS011;35432;43.566;1.398;2023-03-13T05:03:37;11.93;;;6.33;;
49540;SDS011;35432;43.566;1.398;2023-03-13T05:06:03;12.10;;;6.10;;
49540;SDS011;35432;43.566;1.398;2023-03-13T05:08:28;10.82;;;5.78;;
49540;SDS011;35432;43.566;1.398;2023-03-13T05:10:53;13.03;;;5.97;;
49540;SDS011;35432;43.566;1.398;2023-03-13T05:13:19;12.33;;;6.57;;
49540;SDS011;35432;43.566;1.398;2023-03-13T05:15:44;12.20;;;6.00;;
49540;SDS011;35432;43.566;1.398;2023-03-13T05:18:10;11.37;;;6.00;;
49540;SDS011;35432;43.566;1.398;2023-03-13T05:20:35;13.30;;;6.35;;
49540;SDS011;35432;43.566;1.398;2023-03-13T05:23:00;12.37;;;6.20;;
49540;SDS011;35432;43.566;1.398;2023-03-13T05:25:26;12.20;;;6.47;;
49540;SDS011;35432;43.566;1.398;2023-03-13T05:27:51;12.17;;;5.63;;
49540;SDS011;35432;43.566;1.398;2023-03-13T05:30:16;14.20;;;6.80;;
49540;SDS011;35432;43.566;1.398;2023-03-13T05:32:43;10.70;;;6.38;;
49540;SDS011;35432;43.566;1.398;2023-03-13T05:35:09;13.35;;;6.40;;
49540;SDS011;35432;43.566;1.398;2023-03-13T05:37:34;12.17;;;6.13;;
49540;SDS011;35432;43.566;1.398;2023-03-13T05:40:00;11.37;;;5.97;;
49540;SDS011;35432;43.566;1.398;2023-03-13T05:42:25;11.40;;;6.10;;
49540;SDS011;35432;43.566;1.398;2023-03-13T05:44:51;12.57;;;7.13;;
49540;SDS011;35432;43.566;1.398;2023-03-13T05:47:16;12.03;;;6.47;;
49540;SDS011;35432;43.566;1.398;2023-03-13T05:49:42;9.63;;;5.85;;
49540;SDS011;35432;43.566;1.398;2023-03-13T05:52:08;12.43;;;6.40;;
49540;SDS011;35432;43.566;1.398;2023-03-13T05:54:33;11.68;;;5.90;;
49540;SDS011;35432;43.566;1.398;2023-03-13T05:56:59;12.27;;;6.47;;
49540;SDS011;35432;43.566;1.398;2023-03-13T05:59:24;14.80;;;7.17;;
49540;SDS011;35432;43.566;1.398;2023-03-13T06:01:49;13.67;;;7.00;;
49540;SDS011;35432;43.566;1.398;2023-03-13T06:04:15;14.93;;;7.80;;
49540;SDS011;35432;43.566;1.398;2023-03-13T06:06:40;14.13;;;7.47;;
49540;SDS011;35432;43.566;1.398;2023-03-13T06:09:06;16.20;;;8.07;;
49540;SDS011;35432;43.566;1.398;2023-03-13T06:11:31;19.30;;;8.70;;
49540;SDS011;35432;43.566;1.398;2023-03-13T06:13:56;15.97;;;8.23;;
49540;SDS011;35432;43.566;1.398;2023-03-13T06:16:22;18.13;;;8.88;;
49540;SDS011;35432;43.566;1.398;2023-03-13T06:18:47;20.23;;;8.67;;
49540;SDS011;35432;43.566;1.398;2023-03-13T06:21:13;18.77;;;10.07;;
49540;SDS011;35432;43.566;1.398;2023-03-13T06:23:38;23.13;;;9.73;;
49540;SDS011;35432;43.566;1.398;2023-03-13T06:26:04;17.53;;;9.13;;
49540;SDS011;35432;43.566;1.398;2023-03-13T06:28:29;20.80;;;8.32;;
49540;SDS011;35432;43.566;1.398;2023-03-13T06:30:59;19.20;;;9.67;;
49540;SDS011;35432;43.566;1.398;2023-03-13T06:33:25;20.02;;;10.02;;
49540;SDS011;35432;43.566;1.398;2023-03-13T06:35:51;23.10;;;10.47;;
49540;SDS011;35432;43.566;1.398;2023-03-13T06:38:16;23.35;;;10.52;;
49540;SDS011;35432;43.566;1.398;2023-03-13T06:40:42;18.33;;;9.63;;
49540;SDS011;35432;43.566;1.398;2023-03-13T06:43:07;21.53;;;10.33;;
49540;SDS011;35432;43.566;1.398;2023-03-13T06:45:33;19.47;;;9.03;;
49540;SDS011;35432;43.566;1.398;2023-03-13T06:48:00;16.17;;;8.00;;
49540;SDS011;35432;43.566;1.398;2023-03-13T06:50:25;14.63;;;8.07;;
49540;SDS011;35432;43.566;1.398;2023-03-13T06:52:51;17.80;;;8.93;;
49540;SDS011;35432;43.566;1.398;2023-03-13T06:55:17;17.87;;;8.10;;
49540;SDS011;35432;43.566;1.398;2023-03-13T06:57:42;17.63;;;9.43;;
49540;SDS011;35432;43.566;1.398;2023-03-13T07:00:09;20.77;;;9.97;;
49540;SDS011;35432;43.566;1.398;2023-03-13T07:02:35;19.02;;;8.80;;
49540;SDS011;35432;43.566;1.398;2023-03-13T07:05:01;16.20;;;8.03;;
49540;SDS011;35432;43.566;1.398;2023-03-13T07:07:35;14.77;;;7.95;;
49540;SDS011;35432;43.566;1.398;2023-03-13T07:10:00;22.95;;;12.20;;
49540;SDS011;35432;43.566;1.398;2023-03-13T07:12:26;22.67;;;12.40;;
49540;SDS011;35432;43.566;1.398;2023-03-13T07:14:52;17.95;;;9.55;;
49540;SDS011;35432;43.566;1.398;2023-03-13T07:17:17;16.10;;;8.97;;
49540;SDS011;35432;43.566;1.398;2023-03-13T07:19:43;17.37;;;9.20;;
49540;SDS011;35432;43.566;1.398;2023-03-13T07:22:08;17.60;;;9.17;;
49540;SDS011;35432;43.566;1.398;2023-03-13T07:24:33;13.70;;;7.90;;
49540;SDS011;35432;43.566;1.398;2023-03-13T07:26:59;15.33;;;7.23;;
49540;SDS011;35432;43.566;1.398;2023-03-13T07:29:24;18.97;;;7.83;;
49540;SDS011;35432;43.566;1.398;2023-03-13T07:31:50;12.70;;;6.67;;
49540;SDS011;35432;43.566;1.398;2023-03-13T07:34:15;12.50;;;6.40;;
49540;SDS011;35432;43.566;1.398;2023-03-13T07:36:41;11.30;;;6.37;;
49540;SDS011;35432;43.566;1.398;2023-03-13T07:39:06;10.73;;;5.67;;
49540;SDS011;35432;43.566;1.398;2023-03-13T07:41:32;10.75;;;5.43;;
49540;SDS011;35432;43.566;1.398;2023-03-13T07:43:58;10.82;;;5.18;;
49540;SDS011;35432;43.566;1.398;2023-03-13T07:46:23;8.43;;;4.40;;
49540;SDS011;35432;43.566;1.398;2023-03-13T07:48:49;9.45;;;4.30;;
49540;SDS011;35432;43.566;1.398;2023-03-13T07:51:20;9.20;;;4.90;;
49540;SDS011;35432;43.566;1.398;2023-03-13T07:53:47;9.40;;;5.15;;
49540;SDS011;35432;43.566;1.398;2023-03-13T07:56:14;9.25;;;4.68;;
49540;SDS011;35432;43.566;1.398;2023-03-13T07:58:41;8.23;;;3.73;;
49540;SDS011;35432;43.566;1.398;2023-03-13T08:01:08;7.43;;;3.10;;
49540;SDS011;35432;43.566;1.398;2023-03-13T08:03:34;6.72;;;2.80;;
49540;SDS011;35432;43.566;1.398;2023-03-13T08:05:59;7.97;;;3.00;;
49540;SDS011;35432;43.566;1.398;2023-03-13T08:08:27;7.50;;;3.08;;
49540;SDS011;35432;43.566;1.398;2023-03-13T08:10:53;8.70;;;2.80;;
49540;SDS011;35432;43.566;1.398;2023-03-13T08:13:18;6.23;;;2.50;;
49540;SDS011;35432;43.566;1.398;2023-03-13T08:15:44;7.13;;;2.80;;
49540;SDS011;35432;43.566;1.398;2023-03-13T08:18:09;8.00;;;2.70;;
49540;SDS011;35432;43.566;1.398;2023-03-13T08:20:34;7.07;;;2.40;;
49540;SDS011;35432;43.566;1.398;2023-03-13T08:23:00;5.13;;;2.30;;
49540;SDS011;35432;43.566;1.398;2023-03-13T08:25:25;8.20;;;3.00;;
49540;SDS011;35432;43.566;1.398;2023-03-13T08:27:51;8.02;;;2.47;;
49540;SDS011;35432;43.566;1.398;2023-03-13T08:30:16;6.83;;;2.50;;
49540;SDS011;35432;43.566;1.398;2023-03-13T08:32:42;4.33;;;2.07;;
49540;SDS011;35432;43.566;1.398;2023-03-13T08:35:07;5.40;;;2.40;;
49540;SDS011;35432;43.566;1.398;2023-03-13T08:37:33;8.20;;;2.67;;
49540;SDS011;35432;43.566;1.398;2023-03-13T08:39:58;6.03;;;2.53;;
49540;SDS011;35432;43.566;1.398;2023-03-13T08:42:24;5.82;;;2.70;;
49540;SDS011;35432;43.566;1.398;2023-03-13T08:44:49;8.03;;;2.70;;
49540;SDS011;35432;43.566;1.398;2023-03-13T08:47:14;6.97;;;2.80;;
49540;SDS011;35432;43.566;1.398;2023-03-13T08:49:42;7.07;;;2.45;;
49540;SDS011;35432;43.566;1.398;2023-03-13T08:52:08;8.63;;;2.40;;
49540;SDS011;35432;43.566;1.398;2023-03-13T08:54:33;5.93;;;2.43;;
49540;SDS011;35432;43.566;1.398;2023-03-13T08:56:58;10.47;;;2.70;;
49540;SDS011;35432;43.566;1.398;2023-03-13T08:59:24;5.67;;;2.50;;
49540;SDS011;35432;43.566;1.398;2023-03-13T09:01:50;7.38;;;2.65;;
49540;SDS011;35432;43.566;1.398;2023-03-13T09:04:15;8.77;;;2.83;;
49540;SDS011;35432;43.566;1.398;2023-03-13T09:06:40;6.27;;;2.70;;
49540;SDS011;35432;43.566;1.398;2023-03-13T09:09:06;6.47;;;2.60;;
49540;SDS011;35432;43.566;1.398;2023-03-13T09:11:32;7.15;;;2.45;;
49540;SDS011;35432;43.566;1.398;2023-03-13T09:13:59;6.07;;;2.42;;
49540;SDS011;35432;43.566;1.398;2023-03-13T09:16:26;6.00;;;2.63;;
49540;SDS011;35432;43.566;1.398;2023-03-13T09:18:53;7.18;;;2.60;;
49540;SDS011;35432;43.566;1.398;2023-03-13T09:21:24;7.10;;;2.38;;
49540;SDS011;35432;43.566;1.398;2023-03-13T09:23:54;7.32;;;2.78;;
49540;SDS011;35432;43.566;1.398;2023-03-13T09:26:20;4.60;;;2.30;;
49540;SDS011;35432;43.566;1.398;2023-03-13T09:28:46;7.32;;;2.60;;
49540;SDS011;35432;43.566;1.398;2023-03-13T09:31:19;7.47;;;2.60;;
49540;SDS011;35432;43.566;1.398;2023-03-13T09:33:47;6.70;;;2.50;;
49540;SDS011;35432;43.566;1.398;2023-03-13T09:36:13;5.90;;;2.65;;
49540;SDS011;35432;43.566;1.398;2023-03-13T09:38:39;6.83;;;2.60;;
49540;SDS011;35432;43.566;1.398;2023-03-13T09:43:52;8.15;;;2.60;;
49540;SDS011;35432;43.566;1.398;2023-03-13T09:52:19;7.53;;;2.70;;
49540;SDS011;35432;43.566;1.398;2023-03-13T09:54:47;6.87;;;3.00;;
49540;SDS011;35432;43.566;1.398;2023-03-13T09:57:18;7.22;;;2.75;;
49540;SDS011;35432;43.566;1.398;2023-03-13T09:59:50;8.82;;;2.72;;
49540;SDS011;35432;43.566;1.398;2023-03-13T10:02:33;6.50;;;2.35;;
49540;SDS011;35432;43.566;1.398;2023-03-13T10:05:05;7.40;;;2.70;;
49540;SDS011;35432;43.566;1.398;2023-03-13T10:07:44;9.63;;;2.87;;
49540;SDS011;35432;43.566;1.398;2023-03-13T10:10:16;7.28;;;2.58;;
49540;SDS011;35432;43.566;1.398;2023-03-13T10:12:51;8.10;;;2.70;;
49540;SDS011;35432;43.566;1.398;2023-03-13T10:18:12;7.72;;;2.50;;
49540;SDS011;35432;43.566;1.398;2023-03-13T10:20:44;11.23;;;2.75;;
49540;SDS011;35432;43.566;1.398;2023-03-13T10:25:45;7.73;;;2.00;;
49540;SDS011;35432;43.566;1.398;2023-03-13T10:28:12;7.80;;;2.50;;
49540;SDS011;35432;43.566;1.398;2023-03-13T10:30:40;8.75;;;2.35;;
49540;SDS011;35432;43.566;1.398;2023-03-13T10:35:37;6.90;;;2.57;;
49540;SDS011;35432;43.566;1.398;2023-03-13T10:38:11;5.40;;;2.33;;
49540;SDS011;35432;43.566;1.398;2023-03-13T10:40:55;6.05;;;2.28;;
49540;SDS011;35432;43.566;1.398;2023-03-13T10:43:22;7.82;;;2.58;;
49540;SDS011;35432;43.566;1.398;2023-03-13T10:45:50;7.72;;;2.28;;
49540;SDS011;35432;43.566;1.398;2023-03-13T10:48:20;6.97;;;2.50;;
49540;SDS011;35432;43.566;1.398;2023-03-13T10:50:48;6.00;;;2.20;;
49540;SDS011;35432;43.566;1.398;2023-03-13T10:55:47;5.68;;;2.20;;
49540;SDS011;35432;43.566;1.398;2023-03-13T10:58:17;6.43;;;2.22;;
49540;SDS011;35432;43.566;1.398;2023-03-13T11:00:46;6.00;;;2.07;;
49540;SDS011;35432;43.566;1.398;2023-03-13T11:05:42;8.88;;;2.35;;
49540;SDS011;35432;43.566;1.398;2023-03-13T11:10:49;7.65;;;2.40;;
49540;SDS011;35432;43.566;1.398;2023-03-13T11:15:54;7.65;;;2.50;;
49540;SDS011;35432;43.566;1.398;2023-03-13T11:18:26;8.77;;;2.30;;
49540;SDS011;35432;43.566;1.398;2023-03-13T11:20:58;7.68;;;2.58;;
49540;SDS011;35432;43.566;1.398;2023-03-13T11:23:28;6.43;;;2.10;;
49540;SDS011;35432;43.566;1.398;2023-03-13T11:33:47;6.18;;;2.00;;
49540;SDS011;35432;43.566;1.398;2023-03-13T11:39:05;7.53;;;2.20;;
49540;SDS011;35432;43.566;1.398;2023-03-13T11:41:41;5.72;;;1.95;;
49540;SDS011;35432;43.566;1.398;2023-03-13T11:46:55;7.55;;;2.13;;
49540;SDS011;35432;43.566;1.398;2023-03-13T11:52:32;7.53;;;2.07;;
49540;SDS011;35432;43.566;1.398;2023-03-13T11:55:18;7.00;;;2.10;;
49540;SDS011;35432;43.566;1.398;2023-03-13T12:00:32;8.13;;;1.95;;
49540;SDS011;35432;43.566;1.398;2023-03-13T12:03:10;8.02;;;2.05;;
49540;SDS011;35432;43.566;1.398;2023-03-13T12:05:56;6.67;;;2.00;;
49540;SDS011;35432;43.566;1.398;2023-03-13T12:08:25;6.93;;;1.98;;
49540;SDS011;35432;43.566;1.398;2023-03-13T12:13:40;6.68;;;1.70;;
49540;SDS011;35432;43.566;1.398;2023-03-13T12:16:11;6.72;;;1.63;;
49540;SDS011;35432;43.566;1.398;2023-03-13T12:18:41;6.20;;;1.77;;
49540;SDS011;35432;43.566;1.398;2023-03-13T12:26:36;8.48;;;1.60;;
49540;SDS011;35432;43.566;1.398;2023-03-13T12:29:16;4.55;;;1.50;;
49540;SDS011;35432;43.566;1.398;2023-03-13T12:31:52;11.97;;;2.20;;
49540;SDS011;35432;43.566;1.398;2023-03-13T12:37:39;8.68;;;2.10;;
49540;SDS011;35432;43.566;1.398;2023-03-13T12:40:22;8.90;;;1.65;;
49540;SDS011;35432;43.566;1.398;2023-03-13T12:45:35;7.37;;;1.50;;
49540;SDS011;35432;43.566;1.398;2023-03-13T12:50:42;5.35;;;1.70;;
49540;SDS011;35432;43.566;1.398;2023-03-13T12:58:57;6.20;;;1.50;;
49540;SDS011;35432;43.566;1.398;2023-03-13T13:01:30;7.60;;;2.10;;
49540;SDS011;35432;43.566;1.398;2023-03-13T13:04:20;5.57;;;1.42;;
49540;SDS011;35432;43.566;1.398;2023-03-13T13:09:24;6.57;;;1.90;;
49540;SDS011;35432;43.566;1.398;2023-03-13T13:11:53;6.30;;;1.80;;
49540;SDS011;35432;43.566;1.398;2023-03-13T13:16:46;7.17;;;1.63;;
49540;SDS011;35432;43.566;1.398;2023-03-13T13:25:00;7.97;;;1.90;;
49540;SDS011;35432;43.566;1.398;2023-03-13T13:30:01;7.60;;;2.03;;
49540;SDS011;35432;43.566;1.398;2023-03-13T13:37:32;7.43;;;2.25;;
49540;SDS011;35432;43.566;1.398;2023-03-13T13:40:18;6.83;;;2.63;;
49540;SDS011;35432;43.566;1.398;2023-03-13T13:42:46;6.90;;;2.30;;
49540;SDS011;35432;43.566;1.398;2023-03-13T13:47:38;10.30;;;2.30;;
49540;SDS011;35432;43.566;1.398;2023-03-13T13:50:15;21.60;;;18.02;;
49540;SDS011;35432;43.566;1.398;2023-03-13T13:52:45;10.90;;;5.35;;
49540;SDS011;35432;43.566;1.398;2023-03-13T13:58:02;8.40;;;2.83;;
49540;SDS011;35432;43.566;1.398;2023-03-13T14:00:59;10.48;;;2.85;;
49540;SDS011;35432;43.566;1.398;2023-03-13T14:03:27;8.02;;;2.80;;
49540;SDS011;35432;43.566;1.398;2023-03-13T14:05:58;17.20;;;15.10;;
49540;SDS011;35432;43.566;1.398;2023-03-13T14:08:30;8.52;;;4.00;;
49540;SDS011;35432;43.566;1.398;2023-03-13T14:11:04;9.23;;;2.93;;
49540;SDS011;35432;43.566;1.398;2023-03-13T14:14:14;8.18;;;3.20;;
49540;SDS011;35432;43.566;1.398;2023-03-13T14:16:58;8.90;;;2.60;;
49540;SDS011;35432;43.566;1.398;2023-03-13T14:22:06;7.30;;;2.55;;
49540;SDS011;35432;43.566;1.398;2023-03-13T14:24:36;10.37;;;3.13;;
49540;SDS011;35432;43.566;1.398;2023-03-13T14:27:07;8.77;;;2.55;;
49540;SDS011;35432;43.566;1.398;2023-03-13T14:29:40;10.07;;;2.63;;
49540;SDS011;35432;43.566;1.398;2023-03-13T14:32:05;9.57;;;3.53;;
49540;SDS011;35432;43.566;1.398;2023-03-13T14:34:31;11.73;;;3.63;;
49540;SDS011;35432;43.566;1.398;2023-03-13T14:36:57;11.27;;;3.37;;
49540;SDS011;35432;43.566;1.398;2023-03-13T14:42:00;11.45;;;3.67;;
49540;SDS011;35432;43.566;1.398;2023-03-13T14:44:28;9.60;;;2.90;;
49540;SDS011;35432;43.566;1.398;2023-03-13T14:46:57;11.07;;;3.53;;
49540;SDS011;35432;43.566;1.398;2023-03-13T14:49:26;11.13;;;4.80;;
49540;SDS011;35432;43.566;1.398;2023-03-13T14:52:02;12.95;;;4.00;;
49540;SDS011;35432;43.566;1.398;2023-03-13T14:59:33;15.00;;;4.00;;
49540;SDS011;35432;43.566;1.398;2023-03-13T15:02:00;10.27;;;3.90;;
49540;SDS011;35432;43.566;1.398;2023-03-13T15:07:17;13.45;;;4.65;;
49540;SDS011;35432;43.566;1.398;2023-03-13T15:09:43;10.43;;;3.90;;
49540;SDS011;35432;43.566;1.398;2023-03-13T15:12:14;9.45;;;3.53;;
49540;SDS011;35432;43.566;1.398;2023-03-13T15:14:42;12.82;;;3.95;;
49540;SDS011;35432;43.566;1.398;2023-03-13T15:17:10;11.07;;;3.65;;
49540;SDS011;35432;43.566;1.398;2023-03-13T15:19:48;10.55;;;3.30;;
49540;SDS011;35432;43.566;1.398;2023-03-13T15:22:26;9.00;;;3.30;;
49540;SDS011;35432;43.566;1.398;2023-03-13T15:24:53;10.02;;;3.05;;
49540;SDS011;35432;43.566;1.398;2023-03-13T15:27:19;8.63;;;3.40;;
49540;SDS011;35432;43.566;1.398;2023-03-13T15:29:46;12.27;;;3.67;;
49540;SDS011;35432;43.566;1.398;2023-03-13T15:32:16;8.87;;;3.30;;
49540;SDS011;35432;43.566;1.398;2023-03-13T15:34:46;10.93;;;2.95;;
49540;SDS011;35432;43.566;1.398;2023-03-13T15:37:11;6.87;;;3.37;;
49540;SDS011;35432;43.566;1.398;2023-03-13T15:39:37;8.82;;;3.70;;
49540;SDS011;35432;43.566;1.398;2023-03-13T15:42:02;8.13;;;3.13;;
49540;SDS011;35432;43.566;1.398;2023-03-13T15:44:28;10.63;;;3.23;;
49540;SDS011;35432;43.566;1.398;2023-03-13T15:46:53;11.90;;;4.00;;
49540;SDS011;35432;43.566;1.398;2023-03-13T15:49:19;11.73;;;3.70;;
49540;SDS011;35432;43.566;1.398;2023-03-13T15:51:44;11.03;;;3.93;;
49540;SDS011;35432;43.566;1.398;2023-03-13T15:54:10;10.43;;;3.80;;
49540;SDS011;35432;43.566;1.398;2023-03-13T15:56:35;11.90;;;3.73;;
49540;SDS011;35432;43.566;1.398;2023-03-13T15:59:09;12.88;;;3.75;;
49540;SDS011;35432;43.566;1.398;2023-03-13T16:01:35;9.83;;;3.33;;
49540;SDS011;35432;43.566;1.398;2023-03-13T16:04:01;9.82;;;3.42;;
49540;SDS011;35432;43.566;1.398;2023-03-13T16:06:26;13.10;;;4.37;;
49540;SDS011;35432;43.566;1.398;2023-03-13T16:08:56;11.77;;;4.13;;
49540;SDS011;35432;43.566;1.398;2023-03-13T16:11:24;9.83;;;3.90;;
49540;SDS011;35432;43.566;1.398;2023-03-13T16:13:50;10.55;;;3.70;;
49540;SDS011;35432;43.566;1.398;2023-03-13T16:16:23;11.25;;;4.20;;
49540;SDS011;35432;43.566;1.398;2023-03-13T16:18:52;14.40;;;4.05;;
49540;SDS011;35432;43.566;1.398;2023-03-13T16:21:20;10.40;;;3.70;;
49540;SDS011;35432;43.566;1.398;2023-03-13T16:23:51;17.40;;;5.97;;
49540;SDS011;35432;43.566;1.398;2023-03-13T16:26:17;10.65;;;3.95;;
49540;SDS011;35432;43.566;1.398;2023-03-13T16:28:45;12.88;;;4.30;;
49540;SDS011;35432;43.566;1.398;2023-03-13T16:31:32;12.10;;;4.63;;
49540;SDS011;35432;43.566;1.398;2023-03-13T16:33:58;11.70;;;4.30;;
49540;SDS011;35432;43.566;1.398;2023-03-13T16:36:27;12.10;;;3.83;;
49540;SDS011;35432;43.566;1.398;2023-03-13T16:38:55;14.40;;;5.03;;
49540;SDS011;35432;43.566;1.398;2023-03-13T16:41:22;14.55;;;5.60;;